sensor_id;sensor_type;location;lat;lon;timestamp;P1;durP1;ratioP1;P2;durP2;ratioP2
11618;SDS011;5865;48.776;9.280;2022-08-07T00:01:29;2.80;;;1.10;;
11618;SDS011;5865;48.776;9.280;2022-08-07T00:07:17;1.30;;;1.00;;
11618;SDS011;5865;48.776;9.280;2022-08-07T00:09:57;0.80;;;0.80;;
11618;SDS011;5865;48.776;9.280;2022-08-07T00:12:38;1.23;;;0.90;;
11618;SDS011;5865;48.776;9.280;2022-08-07T00:15:08;2.43;;;1.20;;
11618;SDS011;5865;48.776;9.280;2022-08-07T00:17:38;1.33;;;1.00;;
11618;SDS011;5865;48.776;9.280;2022-08-07T00:20:08;0.90;;;0.90;;
11618;SDS011;5865;48.776;9.280;2022-08-07T00:22:35;2.00;;;0.97;;
11618;SDS011;5865;48.776;9.280;2022-08-07T00:25:03;1.67;;;0.80;;
11618;SDS011;5865;48.776;9.280;2022-08-07T00:27:31;1.10;;;1.00;;
11618;SDS011;5865;48.776;9.280;2022-08-07T00:29:58;2.40;;;0.90;;
11618;SDS011;5865;48.776;9.280;2022-08-07T00:32:26;1.50;;;1.00;;
11618;SDS011;5865;48.776;9.280;2022-08-07T00:34:53;1.97;;;0.97;;
11618;SDS011;5865;48.776;9.280;2022-08-07T00:37:22;1.00;;;0.90;;
11618;SDS011;5865;48.776;9.280;2022-08-07T00:39:50;1.37;;;1.13;;
11618;SDS011;5865;48.776;9.280;2022-08-07T00:42:18;0.90;;;0.90;;
11618;SDS011;5865;48.776;9.280;2022-08-07T00:45:00;2.50;;;1.10;;
11618;SDS011;5865;48.776;9.280;2022-08-07T00:47:41;2.10;;;1.00;;
11618;SDS011;5865;48.776;9.280;2022-08-07T00:50:08;1.63;;;1.03;;
11618;SDS011;5865;48.776;9.280;2022-08-07T00:52:50;1.70;;;1.10;;
11618;SDS011;5865;48.776;9.280;2022-08-07T00:55:17;1.30;;;1.10;;
11618;SDS011;5865;48.776;9.280;2022-08-07T00:57:44;1.87;;;1.10;;
11618;SDS011;5865;48.776;9.280;2022-08-07T01:00:11;2.87;;;1.07;;
11618;SDS011;5865;48.776;9.280;2022-08-07T01:02:40;1.10;;;1.00;;
11618;SDS011;5865;48.776;9.280;2022-08-07T01:05:08;1.80;;;1.10;;
11618;SDS011;5865;48.776;9.280;2022-08-07T01:07:36;1.10;;;1.00;;
11618;SDS011;5865;48.776;9.280;2022-08-07T01:10:06;1.20;;;1.10;;
11618;SDS011;5865;48.776;9.280;2022-08-07T01:12:35;1.40;;;1.17;;
11618;SDS011;5865;48.776;9.280;2022-08-07T01:15:03;2.17;;;1.10;;
11618;SDS011;5865;48.776;9.280;2022-08-07T01:17:31;1.47;;;1.20;;
11618;SDS011;5865;48.776;9.280;2022-08-07T01:20:01;1.77;;;1.10;;
11618;SDS011;5865;48.776;9.280;2022-08-07T01:22:45;1.97;;;1.20;;
11618;SDS011;5865;48.776;9.280;2022-08-07T01:25:14;1.53;;;1.00;;
11618;SDS011;5865;48.776;9.280;2022-08-07T01:27:42;1.90;;;1.10;;
11618;SDS011;5865;48.776;9.280;2022-08-07T01:30:09;0.93;;;0.93;;
11618;SDS011;5865;48.776;9.280;2022-08-07T01:32:37;1.17;;;1.07;;
11618;SDS011;5865;48.776;9.280;2022-08-07T01:35:05;2.47;;;1.10;;
11618;SDS011;5865;48.776;9.280;2022-08-07T01:37:34;1.30;;;1.20;;
11618;SDS011;5865;48.776;9.280;2022-08-07T01:40:18;1.63;;;1.10;;
11618;SDS011;5865;48.776;9.280;2022-08-07T01:42:56;1.03;;;1.00;;
11618;SDS011;5865;48.776;9.280;2022-08-07T01:45:37;1.13;;;1.03;;
11618;SDS011;5865;48.776;9.280;2022-08-07T01:48:19;1.30;;;1.00;;
11618;SDS011;5865;48.776;9.280;2022-08-07T01:50:49;2.47;;;1.20;;
11618;SDS011;5865;48.776;9.280;2022-08-07T01:53:33;1.43;;;1.10;;
11618;SDS011;5865;48.776;9.280;2022-08-07T02:15:08;1.27;;;1.17;;
11618;SDS011;5865;48.776;9.280;2022-08-07T02:17:39;1.10;;;1.00;;
11618;SDS011;5865;48.776;9.280;2022-08-07T02:20:09;1.00;;;0.90;;
11618;SDS011;5865;48.776;9.280;2022-08-07T02:22:54;3.03;;;1.00;;
11618;SDS011;5865;48.776;9.280;2022-08-07T02:25:28;2.67;;;1.10;;
11618;SDS011;5865;48.776;9.280;2022-08-07T02:27:57;1.63;;;1.10;;
11618;SDS011;5865;48.776;9.280;2022-08-07T02:30:27;1.30;;;1.20;;
11618;SDS011;5865;48.776;9.280;2022-08-07T02:32:55;1.00;;;1.00;;
11618;SDS011;5865;48.776;9.280;2022-08-07T02:35:37;1.00;;;1.00;;
11618;SDS011;5865;48.776;9.280;2022-08-07T02:38:19;1.33;;;0.90;;
11618;SDS011;5865;48.776;9.280;2022-08-07T02:40:52;1.47;;;1.00;;
11618;SDS011;5865;48.776;9.280;2022-08-07T02:43:22;1.20;;;1.03;;
11618;SDS011;5865;48.776;9.280;2022-08-07T02:45:51;2.00;;;1.13;;
11618;SDS011;5865;48.776;9.280;2022-08-07T02:48:34;1.50;;;1.20;;
11618;SDS011;5865;48.776;9.280;2022-08-07T02:51:06;1.17;;;1.00;;
11618;SDS011;5865;48.776;9.280;2022-08-07T02:53:37;1.20;;;1.10;;
11618;SDS011;5865;48.776;9.280;2022-08-07T02:56:10;2.03;;;1.10;;
11618;SDS011;5865;48.776;9.280;2022-08-07T02:58:42;3.23;;;1.30;;
11618;SDS011;5865;48.776;9.280;2022-08-07T03:01:10;1.97;;;1.10;;
11618;SDS011;5865;48.776;9.280;2022-08-07T03:03:52;1.83;;;1.10;;
11618;SDS011;5865;48.776;9.280;2022-08-07T03:06:34;2.30;;;1.10;;
11618;SDS011;5865;48.776;9.280;2022-08-07T03:09:16;1.10;;;1.10;;
11618;SDS011;5865;48.776;9.280;2022-08-07T03:11:49;1.93;;;1.10;;
11618;SDS011;5865;48.776;9.280;2022-08-07T03:14:18;1.83;;;1.00;;
11618;SDS011;5865;48.776;9.280;2022-08-07T03:16:59;2.23;;;1.20;;
11618;SDS011;5865;48.776;9.280;2022-08-07T03:19:27;1.20;;;1.10;;
11618;SDS011;5865;48.776;9.280;2022-08-07T03:21:57;2.33;;;1.30;;
11618;SDS011;5865;48.776;9.280;2022-08-07T03:24:25;1.20;;;1.10;;
11618;SDS011;5865;48.776;9.280;2022-08-07T03:26:53;1.93;;;1.20;;
11618;SDS011;5865;48.776;9.280;2022-08-07T03:29:25;1.03;;;0.93;;
11618;SDS011;5865;48.776;9.280;2022-08-07T03:31:54;1.70;;;1.10;;
11618;SDS011;5865;48.776;9.280;2022-08-07T03:34:36;1.43;;;1.30;;
11618;SDS011;5865;48.776;9.280;2022-08-07T03:37:18;1.63;;;1.23;;
11618;SDS011;5865;48.776;9.280;2022-08-07T03:40:01;1.30;;;1.20;;
11618;SDS011;5865;48.776;9.280;2022-08-07T03:42:29;2.20;;;1.33;;
11618;SDS011;5865;48.776;9.280;2022-08-07T03:45:03;2.13;;;1.30;;
11618;SDS011;5865;48.776;9.280;2022-08-07T03:47:31;2.33;;;1.27;;
11618;SDS011;5865;48.776;9.280;2022-08-07T03:49:58;1.57;;;1.40;;
11618;SDS011;5865;48.776;9.280;2022-08-07T03:52:32;1.10;;;1.00;;
11618;SDS011;5865;48.776;9.280;2022-08-07T03:55:04;1.30;;;1.20;;
11618;SDS011;5865;48.776;9.280;2022-08-07T03:57:32;1.40;;;1.23;;
11618;SDS011;5865;48.776;9.280;2022-08-07T04:00:00;1.50;;;1.30;;
11618;SDS011;5865;48.776;9.280;2022-08-07T04:02:40;1.70;;;1.30;;
11618;SDS011;5865;48.776;9.280;2022-08-07T04:05:11;1.30;;;1.20;;
11618;SDS011;5865;48.776;9.280;2022-08-07T04:07:42;1.57;;;1.20;;
11618;SDS011;5865;48.776;9.280;2022-08-07T04:10:13;1.50;;;1.40;;
11618;SDS011;5865;48.776;9.280;2022-08-07T04:12:40;2.27;;;1.40;;
11618;SDS011;5865;48.776;9.280;2022-08-07T04:15:12;1.83;;;1.50;;
11618;SDS011;5865;48.776;9.280;2022-08-07T04:17:41;1.90;;;1.27;;
11618;SDS011;5865;48.776;9.280;2022-08-07T04:20:11;2.00;;;1.50;;
11618;SDS011;5865;48.776;9.280;2022-08-07T04:22:40;1.30;;;1.20;;
11618;SDS011;5865;48.776;9.280;2022-08-07T04:25:09;1.83;;;1.47;;
11618;SDS011;5865;48.776;9.280;2022-08-07T04:27:45;1.50;;;1.30;;
11618;SDS011;5865;48.776;9.280;2022-08-07T04:30:17;1.57;;;1.23;;
11618;SDS011;5865;48.776;9.280;2022-08-07T04:32:52;1.23;;;1.13;;
11618;SDS011;5865;48.776;9.280;2022-08-07T04:35:21;1.77;;;1.40;;
11618;SDS011;5865;48.776;9.280;2022-08-07T04:37:50;1.47;;;1.20;;
11618;SDS011;5865;48.776;9.280;2022-08-07T04:40:18;1.50;;;1.40;;
11618;SDS011;5865;48.776;9.280;2022-08-07T04:42:46;1.73;;;1.30;;
11618;SDS011;5865;48.776;9.280;2022-08-07T04:45:14;2.17;;;1.33;;
11618;SDS011;5865;48.776;9.280;2022-08-07T04:47:46;1.90;;;1.17;;
11618;SDS011;5865;48.776;9.280;2022-08-07T04:50:22;2.07;;;1.40;;
11618;SDS011;5865;48.776;9.280;2022-08-07T04:53:07;1.67;;;1.30;;
11618;SDS011;5865;48.776;9.280;2022-08-07T04:55:42;1.70;;;1.60;;
11618;SDS011;5865;48.776;9.280;2022-08-07T04:58:17;1.50;;;1.37;;
11618;SDS011;5865;48.776;9.280;2022-08-07T05:00:49;1.40;;;1.30;;
11618;SDS011;5865;48.776;9.280;2022-08-07T05:03:24;1.50;;;1.40;;
11618;SDS011;5865;48.776;9.280;2022-08-07T05:05:58;2.30;;;1.40;;
11618;SDS011;5865;48.776;9.280;2022-08-07T05:08:35;2.47;;;1.40;;
11618;SDS011;5865;48.776;9.280;2022-08-07T05:11:11;1.60;;;1.33;;
11618;SDS011;5865;48.776;9.280;2022-08-07T05:13:44;1.60;;;1.50;;
11618;SDS011;5865;48.776;9.280;2022-08-07T05:16:16;1.60;;;1.50;;
11618;SDS011;5865;48.776;9.280;2022-08-07T05:18:46;1.63;;;1.40;;
11618;SDS011;5865;48.776;9.280;2022-08-07T05:21:17;1.60;;;1.50;;
11618;SDS011;5865;48.776;9.280;2022-08-07T05:23:50;1.30;;;1.20;;
11618;SDS011;5865;48.776;9.280;2022-08-07T05:26:21;1.73;;;1.47;;
11618;SDS011;5865;48.776;9.280;2022-08-07T05:28:58;1.60;;;1.50;;
11618;SDS011;5865;48.776;9.280;2022-08-07T05:31:30;1.83;;;1.60;;
11618;SDS011;5865;48.776;9.280;2022-08-07T05:34:01;1.83;;;1.67;;
11618;SDS011;5865;48.776;9.280;2022-08-07T05:36:29;1.67;;;1.57;;
11618;SDS011;5865;48.776;9.280;2022-08-07T05:38:57;2.00;;;1.80;;
11618;SDS011;5865;48.776;9.280;2022-08-07T05:41:25;2.13;;;1.60;;
11618;SDS011;5865;48.776;9.280;2022-08-07T05:43:53;2.10;;;1.90;;
11618;SDS011;5865;48.776;9.280;2022-08-07T05:46:21;1.90;;;1.70;;
11618;SDS011;5865;48.776;9.280;2022-08-07T05:48:50;2.23;;;1.80;;
11618;SDS011;5865;48.776;9.280;2022-08-07T05:51:19;2.00;;;1.80;;
11618;SDS011;5865;48.776;9.280;2022-08-07T05:53:47;2.17;;;1.70;;
11618;SDS011;5865;48.776;9.280;2022-08-07T05:56:16;1.98;;;1.83;;
11618;SDS011;5865;48.776;9.280;2022-08-07T05:58:48;3.15;;;2.00;;
11618;SDS011;5865;48.776;9.280;2022-08-07T06:01:17;3.97;;;2.30;;
11618;SDS011;5865;48.776;9.280;2022-08-07T06:03:47;2.47;;;2.28;;
11618;SDS011;5865;48.776;9.280;2022-08-07T06:06:20;6.20;;;2.40;;
11618;SDS011;5865;48.776;9.280;2022-08-07T06:08:52;2.42;;;2.22;;
11618;SDS011;5865;48.776;9.280;2022-08-07T06:11:20;2.08;;;1.88;;
11618;SDS011;5865;48.776;9.280;2022-08-07T06:13:49;2.65;;;2.45;;
11618;SDS011;5865;48.776;9.280;2022-08-07T06:16:16;2.50;;;1.90;;
11618;SDS011;5865;48.776;9.280;2022-08-07T06:18:45;2.50;;;2.30;;
11618;SDS011;5865;48.776;9.280;2022-08-07T06:21:14;2.15;;;2.00;;
11618;SDS011;5865;48.776;9.280;2022-08-07T06:23:44;2.42;;;2.15;;
11618;SDS011;5865;48.776;9.280;2022-08-07T06:26:11;2.40;;;2.20;;
11618;SDS011;5865;48.776;9.280;2022-08-07T06:28:49;2.40;;;2.17;;
11618;SDS011;5865;48.776;9.280;2022-08-07T06:31:17;2.72;;;2.10;;
11618;SDS011;5865;48.776;9.280;2022-08-07T06:33:45;2.80;;;2.25;;
11618;SDS011;5865;48.776;9.280;2022-08-07T06:36:13;2.25;;;2.00;;
11618;SDS011;5865;48.776;9.280;2022-08-07T06:38:47;2.42;;;2.22;;
11618;SDS011;5865;48.776;9.280;2022-08-07T06:41:15;2.55;;;1.98;;
11618;SDS011;5865;48.776;9.280;2022-08-07T06:43:46;2.83;;;1.80;;
11618;SDS011;5865;48.776;9.280;2022-08-07T06:46:18;3.00;;;2.22;;
11618;SDS011;5865;48.776;9.280;2022-08-07T06:48:46;2.33;;;2.13;;
11618;SDS011;5865;48.776;9.280;2022-08-07T06:51:19;2.40;;;2.20;;
11618;SDS011;5865;48.776;9.280;2022-08-07T06:53:51;3.65;;;2.13;;
11618;SDS011;5865;48.776;9.280;2022-08-07T06:56:21;2.10;;;1.90;;
11618;SDS011;5865;48.776;9.280;2022-08-07T06:59:04;2.17;;;1.95;;
11618;SDS011;5865;48.776;9.280;2022-08-07T07:01:35;2.80;;;2.30;;
11618;SDS011;5865;48.776;9.280;2022-08-07T07:04:03;2.45;;;1.95;;
11618;SDS011;5865;48.776;9.280;2022-08-07T07:06:31;2.40;;;2.20;;
11618;SDS011;5865;48.776;9.280;2022-08-07T07:09:17;3.22;;;1.90;;
11618;SDS011;5865;48.776;9.280;2022-08-07T07:11:48;2.78;;;2.10;;
11618;SDS011;5865;48.776;9.280;2022-08-07T07:14:22;1.92;;;1.80;;
11618;SDS011;5865;48.776;9.280;2022-08-07T07:16:51;2.45;;;1.85;;
11618;SDS011;5865;48.776;9.280;2022-08-07T07:19:24;2.20;;;1.92;;
11618;SDS011;5865;48.776;9.280;2022-08-07T07:21:55;2.15;;;1.60;;
11618;SDS011;5865;48.776;9.280;2022-08-07T07:24:24;2.40;;;2.00;;
11618;SDS011;5865;48.776;9.280;2022-08-07T07:26:52;1.73;;;1.50;;
11618;SDS011;5865;48.776;9.280;2022-08-07T07:29:24;2.60;;;1.75;;
11618;SDS011;5865;48.776;9.280;2022-08-07T07:31:56;1.60;;;1.50;;
11618;SDS011;5865;48.776;9.280;2022-08-07T07:34:26;3.00;;;1.70;;
11618;SDS011;5865;48.776;9.280;2022-08-07T07:36:55;1.20;;;1.20;;
11618;SDS011;5865;48.776;9.280;2022-08-07T07:39:27;1.40;;;1.30;;
11618;SDS011;5865;48.776;9.280;2022-08-07T07:41:55;1.52;;;1.30;;
11618;SDS011;5865;48.776;9.280;2022-08-07T07:44:25;2.15;;;1.30;;
11618;SDS011;5865;48.776;9.280;2022-08-07T07:46:55;1.40;;;1.30;;
11618;SDS011;5865;48.776;9.280;2022-08-07T07:49:26;1.60;;;1.40;;
11618;SDS011;5865;48.776;9.280;2022-08-07T07:51:55;2.00;;;1.45;;
11618;SDS011;5865;48.776;9.280;2022-08-07T07:54:23;1.77;;;1.30;;
11618;SDS011;5865;48.776;9.280;2022-08-07T07:56:54;1.30;;;1.20;;
11618;SDS011;5865;48.776;9.280;2022-08-07T07:59:22;1.38;;;1.20;;
11618;SDS011;5865;48.776;9.280;2022-08-07T08:01:50;1.20;;;1.10;;
11618;SDS011;5865;48.776;9.280;2022-08-07T08:04:20;1.67;;;1.20;;
11618;SDS011;5865;48.776;9.280;2022-08-07T08:06:51;4.13;;;1.20;;
11618;SDS011;5865;48.776;9.280;2022-08-07T08:09:20;1.23;;;1.10;;
11618;SDS011;5865;48.776;9.280;2022-08-07T08:11:50;1.30;;;1.20;;
11618;SDS011;5865;48.776;9.280;2022-08-07T08:14:18;1.65;;;1.35;;
11618;SDS011;5865;48.776;9.280;2022-08-07T08:16:46;2.95;;;1.20;;
11618;SDS011;5865;48.776;9.280;2022-08-07T08:19:14;1.30;;;1.20;;
11618;SDS011;5865;48.776;9.280;2022-08-07T08:21:43;1.40;;;1.30;;
11618;SDS011;5865;48.776;9.280;2022-08-07T08:24:31;1.70;;;1.30;;
11618;SDS011;5865;48.776;9.280;2022-08-07T08:27:20;1.85;;;1.30;;
11618;SDS011;5865;48.776;9.280;2022-08-07T08:29:52;1.23;;;1.13;;
11618;SDS011;5865;48.776;9.280;2022-08-07T08:32:23;1.25;;;1.15;;
11618;SDS011;5865;48.776;9.280;2022-08-07T08:34:53;2.72;;;1.50;;
11618;SDS011;5865;48.776;9.280;2022-08-07T08:37:24;2.60;;;1.20;;
11618;SDS011;5865;48.776;9.280;2022-08-07T08:39:54;3.35;;;1.08;;
11618;SDS011;5865;48.776;9.280;2022-08-07T08:42:24;1.15;;;0.93;;
11618;SDS011;5865;48.776;9.280;2022-08-07T08:44:59;1.10;;;1.00;;
11618;SDS011;5865;48.776;9.280;2022-08-07T08:47:33;2.80;;;1.20;;
11618;SDS011;5865;48.776;9.280;2022-08-07T08:50:08;0.90;;;0.90;;
11618;SDS011;5865;48.776;9.280;2022-08-07T08:52:43;1.20;;;1.08;;
11618;SDS011;5865;48.776;9.280;2022-08-07T08:55:13;2.20;;;1.10;;
11618;SDS011;5865;48.776;9.280;2022-08-07T08:57:48;0.98;;;0.90;;
11618;SDS011;5865;48.776;9.280;2022-08-07T09:00:25;1.08;;;0.98;;
11618;SDS011;5865;48.776;9.280;2022-08-07T09:02:56;1.40;;;1.00;;
11618;SDS011;5865;48.776;9.280;2022-08-07T09:05:28;1.63;;;1.00;;
11618;SDS011;5865;48.776;9.280;2022-08-07T09:08:03;1.25;;;1.00;;
11618;SDS011;5865;48.776;9.280;2022-08-07T09:10:45;0.80;;;0.80;;
11618;SDS011;5865;48.776;9.280;2022-08-07T09:13:31;2.13;;;1.15;;
11618;SDS011;5865;48.776;9.280;2022-08-07T09:16:13;0.88;;;0.88;;
11618;SDS011;5865;48.776;9.280;2022-08-07T09:19:18;1.25;;;0.95;;
11618;SDS011;5865;48.776;9.280;2022-08-07T09:21:47;1.55;;;0.98;;
11618;SDS011;5865;48.776;9.280;2022-08-07T09:24:24;1.90;;;1.02;;
11618;SDS011;5865;48.776;9.280;2022-08-07T09:27:02;2.45;;;1.00;;
11618;SDS011;5865;48.776;9.280;2022-08-07T09:29:42;1.38;;;0.93;;
11618;SDS011;5865;48.776;9.280;2022-08-07T09:32:22;1.35;;;0.82;;
11618;SDS011;5865;48.776;9.280;2022-08-07T09:35:06;0.60;;;0.60;;
11618;SDS011;5865;48.776;9.280;2022-08-07T09:37:43;1.25;;;0.95;;
11618;SDS011;5865;48.776;9.280;2022-08-07T09:40:21;1.10;;;0.80;;
11618;SDS011;5865;48.776;9.280;2022-08-07T09:43:06;1.40;;;0.73;;
11618;SDS011;5865;48.776;9.280;2022-08-07T09:45:46;0.73;;;0.73;;
11618;SDS011;5865;48.776;9.280;2022-08-07T09:48:35;0.80;;;0.80;;
11618;SDS011;5865;48.776;9.280;2022-08-07T09:51:14;1.02;;;0.80;;
11618;SDS011;5865;48.776;9.280;2022-08-07T09:53:54;1.48;;;0.80;;
11618;SDS011;5865;48.776;9.280;2022-08-07T09:56:30;0.70;;;0.70;;
11618;SDS011;5865;48.776;9.280;2022-08-07T09:59:29;0.65;;;0.60;;
11618;SDS011;5865;48.776;9.280;2022-08-07T10:02:24;0.80;;;0.80;;
11618;SDS011;5865;48.776;9.280;2022-08-07T10:05:15;1.25;;;0.77;;
11618;SDS011;5865;48.776;9.280;2022-08-07T10:08:08;0.82;;;0.70;;
11618;SDS011;5865;48.776;9.280;2022-08-07T10:10:47;0.68;;;0.63;;
11618;SDS011;5865;48.776;9.280;2022-08-07T10:13:22;0.80;;;0.70;;
11618;SDS011;5865;48.776;9.280;2022-08-07T10:16:15;0.82;;;0.70;;
11618;SDS011;5865;48.776;9.280;2022-08-07T10:21:51;0.90;;;0.60;;
11618;SDS011;5865;48.776;9.280;2022-08-07T10:27:27;0.93;;;0.82;;
11618;SDS011;5865;48.776;9.280;2022-08-07T10:30:07;0.90;;;0.80;;
11618;SDS011;5865;48.776;9.280;2022-08-07T10:32:51;0.80;;;0.80;;
11618;SDS011;5865;48.776;9.280;2022-08-07T10:35:48;0.85;;;0.70;;
11618;SDS011;5865;48.776;9.280;2022-08-07T10:38:26;1.63;;;0.80;;
11618;SDS011;5865;48.776;9.280;2022-08-07T10:41:05;0.80;;;0.80;;
11618;SDS011;5865;48.776;9.280;2022-08-07T10:43:38;1.50;;;0.90;;
11618;SDS011;5865;48.776;9.280;2022-08-07T10:46:12;3.50;;;1.00;;
11618;SDS011;5865;48.776;9.280;2022-08-07T10:48:48;1.23;;;0.80;;
11618;SDS011;5865;48.776;9.280;2022-08-07T10:51:28;1.90;;;0.75;;
11618;SDS011;5865;48.776;9.280;2022-08-07T10:54:05;0.90;;;0.70;;
11618;SDS011;5865;48.776;9.280;2022-08-07T10:56:39;0.80;;;0.70;;
11618;SDS011;5865;48.776;9.280;2022-08-07T10:59:17;0.98;;;0.80;;
11618;SDS011;5865;48.776;9.280;2022-08-07T11:01:52;1.85;;;0.82;;
11618;SDS011;5865;48.776;9.280;2022-08-07T11:04:32;0.50;;;0.50;;
11618;SDS011;5865;48.776;9.280;2022-08-07T11:07:09;0.80;;;0.80;;
11618;SDS011;5865;48.776;9.280;2022-08-07T11:09:53;1.75;;;0.95;;
11618;SDS011;5865;48.776;9.280;2022-08-07T11:12:25;0.82;;;0.82;;
11618;SDS011;5865;48.776;9.280;2022-08-07T11:14:59;0.80;;;0.80;;
11618;SDS011;5865;48.776;9.280;2022-08-07T11:17:31;0.73;;;0.73;;
11618;SDS011;5865;48.776;9.280;2022-08-07T11:20:05;0.98;;;0.75;;
11618;SDS011;5865;48.776;9.280;2022-08-07T11:22:37;0.68;;;0.68;;
11618;SDS011;5865;48.776;9.280;2022-08-07T11:25:12;1.10;;;0.90;;
11618;SDS011;5865;48.776;9.280;2022-08-07T11:27:44;0.70;;;0.70;;
11618;SDS011;5865;48.776;9.280;2022-08-07T11:30:16;1.75;;;0.80;;
11618;SDS011;5865;48.776;9.280;2022-08-07T11:32:46;0.85;;;0.75;;
11618;SDS011;5865;48.776;9.280;2022-08-07T11:35:20;0.68;;;0.68;;
11618;SDS011;5865;48.776;9.280;2022-08-07T11:40:45;1.00;;;0.90;;
11618;SDS011;5865;48.776;9.280;2022-08-07T11:43:21;0.70;;;0.70;;
11618;SDS011;5865;48.776;9.280;2022-08-07T11:46:08;0.80;;;0.80;;
11618;SDS011;5865;48.776;9.280;2022-08-07T11:48:52;0.80;;;0.80;;
11618;SDS011;5865;48.776;9.280;2022-08-07T11:51:31;0.70;;;0.70;;
11618;SDS011;5865;48.776;9.280;2022-08-07T11:54:14;0.65;;;0.65;;
11618;SDS011;5865;48.776;9.280;2022-08-07T11:56:56;0.80;;;0.80;;
11618;SDS011;5865;48.776;9.280;2022-08-07T12:00:02;0.93;;;0.65;;
11618;SDS011;5865;48.776;9.280;2022-08-07T12:05:41;0.70;;;0.70;;
11618;SDS011;5865;48.776;9.280;2022-08-07T12:08:15;1.27;;;0.70;;
11618;SDS011;5865;48.776;9.280;2022-08-07T12:10:47;0.70;;;0.70;;
11618;SDS011;5865;48.776;9.280;2022-08-07T12:13:24;1.13;;;0.77;;
11618;SDS011;5865;48.776;9.280;2022-08-07T12:15:56;1.10;;;1.00;;
11618;SDS011;5865;48.776;9.280;2022-08-07T12:18:30;1.58;;;0.70;;
11618;SDS011;5865;48.776;9.280;2022-08-07T12:21:13;0.73;;;0.73;;
11618;SDS011;5865;48.776;9.280;2022-08-07T12:23:58;1.30;;;0.82;;
11618;SDS011;5865;48.776;9.280;2022-08-07T12:26:30;1.17;;;0.73;;
11618;SDS011;5865;48.776;9.280;2022-08-07T12:29:08;1.45;;;0.90;;
11618;SDS011;5865;48.776;9.280;2022-08-07T12:31:40;1.17;;;0.82;;
11618;SDS011;5865;48.776;9.280;2022-08-07T12:34:09;1.80;;;1.45;;
11618;SDS011;5865;48.776;9.280;2022-08-07T12:36:38;1.42;;;0.90;;
11618;SDS011;5865;48.776;9.280;2022-08-07T12:39:07;1.60;;;1.10;;
11618;SDS011;5865;48.776;9.280;2022-08-07T12:41:36;1.60;;;1.20;;
11618;SDS011;5865;48.776;9.280;2022-08-07T12:44:07;1.17;;;0.93;;
11618;SDS011;5865;48.776;9.280;2022-08-07T12:46:43;1.13;;;0.90;;
11618;SDS011;5865;48.776;9.280;2022-08-07T12:49:23;1.35;;;0.80;;
11618;SDS011;5865;48.776;9.280;2022-08-07T12:52:03;1.95;;;0.70;;
11618;SDS011;5865;48.776;9.280;2022-08-07T12:54:34;0.88;;;0.80;;
11618;SDS011;5865;48.776;9.280;2022-08-07T12:57:08;0.88;;;0.77;;
11618;SDS011;5865;48.776;9.280;2022-08-07T12:59:38;0.70;;;0.70;;
11618;SDS011;5865;48.776;9.280;2022-08-07T13:02:11;0.75;;;0.75;;
11618;SDS011;5865;48.776;9.280;2022-08-07T13:04:58;1.98;;;0.80;;
11618;SDS011;5865;48.776;9.280;2022-08-07T13:10:42;1.58;;;0.90;;
11618;SDS011;5865;48.776;9.280;2022-08-07T13:13:19;1.13;;;0.90;;
11618;SDS011;5865;48.776;9.280;2022-08-07T13:16:01;1.17;;;0.90;;
11618;SDS011;5865;48.776;9.280;2022-08-07T13:18:36;0.90;;;0.80;;
11618;SDS011;5865;48.776;9.280;2022-08-07T13:21:19;0.95;;;0.80;;
11618;SDS011;5865;48.776;9.280;2022-08-07T13:23:51;0.88;;;0.85;;
11618;SDS011;5865;48.776;9.280;2022-08-07T13:26:25;2.88;;;0.90;;
11618;SDS011;5865;48.776;9.280;2022-08-07T13:29:00;0.65;;;0.65;;
11618;SDS011;5865;48.776;9.280;2022-08-07T13:31:38;0.80;;;0.80;;
11618;SDS011;5865;48.776;9.280;2022-08-07T13:34:11;1.00;;;0.90;;
11618;SDS011;5865;48.776;9.280;2022-08-07T13:36:48;2.53;;;0.80;;
11618;SDS011;5865;48.776;9.280;2022-08-07T13:39:25;0.80;;;0.80;;
11618;SDS011;5865;48.776;9.280;2022-08-07T13:41:57;1.70;;;0.70;;
11618;SDS011;5865;48.776;9.280;2022-08-07T13:44:26;0.80;;;0.73;;
11618;SDS011;5865;48.776;9.280;2022-08-07T13:46:58;0.75;;;0.75;;
11618;SDS011;5865;48.776;9.280;2022-08-07T13:49:31;1.33;;;0.82;;
11618;SDS011;5865;48.776;9.280;2022-08-07T13:52:02;0.80;;;0.80;;
11618;SDS011;5865;48.776;9.280;2022-08-07T13:54:31;0.73;;;0.73;;
11618;SDS011;5865;48.776;9.280;2022-08-07T13:57:02;2.35;;;0.85;;
11618;SDS011;5865;48.776;9.280;2022-08-07T13:59:35;1.10;;;0.90;;
11618;SDS011;5865;48.776;9.280;2022-08-07T14:02:07;0.80;;;0.80;;
11618;SDS011;5865;48.776;9.280;2022-08-07T14:04:43;2.80;;;1.05;;
11618;SDS011;5865;48.776;9.280;2022-08-07T14:07:13;1.23;;;1.13;;
11618;SDS011;5865;48.776;9.280;2022-08-07T14:09:41;1.27;;;0.80;;
11618;SDS011;5865;48.776;9.280;2022-08-07T14:12:10;0.95;;;0.80;;
11618;SDS011;5865;48.776;9.280;2022-08-07T14:15:00;0.73;;;0.73;;
11618;SDS011;5865;48.776;9.280;2022-08-07T14:17:33;1.15;;;0.90;;
11618;SDS011;5865;48.776;9.280;2022-08-07T14:20:03;0.80;;;0.80;;
11618;SDS011;5865;48.776;9.280;2022-08-07T14:22:35;1.17;;;0.98;;
11618;SDS011;5865;48.776;9.280;2022-08-07T14:25:06;1.65;;;0.80;;
11618;SDS011;5865;48.776;9.280;2022-08-07T14:27:36;1.63;;;1.00;;
11618;SDS011;5865;48.776;9.280;2022-08-07T14:30:06;2.47;;;1.10;;
11618;SDS011;5865;48.776;9.280;2022-08-07T14:32:38;1.95;;;0.98;;
11618;SDS011;5865;48.776;9.280;2022-08-07T14:35:10;0.80;;;0.80;;
11618;SDS011;5865;48.776;9.280;2022-08-07T14:37:42;1.20;;;1.00;;
11618;SDS011;5865;48.776;9.280;2022-08-07T14:40:14;1.15;;;1.00;;
11618;SDS011;5865;48.776;9.280;2022-08-07T14:42:42;0.70;;;0.70;;
11618;SDS011;5865;48.776;9.280;2022-08-07T14:45:11;1.05;;;0.90;;
11618;SDS011;5865;48.776;9.280;2022-08-07T14:47:41;1.63;;;0.82;;
11618;SDS011;5865;48.776;9.280;2022-08-07T14:50:12;1.17;;;1.00;;
11618;SDS011;5865;48.776;9.280;2022-08-07T14:52:43;0.80;;;0.80;;
11618;SDS011;5865;48.776;9.280;2022-08-07T14:55:12;1.58;;;0.85;;
11618;SDS011;5865;48.776;9.280;2022-08-07T14:57:40;0.77;;;0.77;;
11618;SDS011;5865;48.776;9.280;2022-08-07T15:00:09;1.42;;;1.13;;
11618;SDS011;5865;48.776;9.280;2022-08-07T15:02:37;1.35;;;0.90;;
11618;SDS011;5865;48.776;9.280;2022-08-07T15:05:12;1.00;;;1.00;;
11618;SDS011;5865;48.776;9.280;2022-08-07T15:07:40;0.98;;;0.90;;
11618;SDS011;5865;48.776;9.280;2022-08-07T15:10:15;1.02;;;0.90;;
11618;SDS011;5865;48.776;9.280;2022-08-07T15:12:43;1.85;;;0.80;;
11618;SDS011;5865;48.776;9.280;2022-08-07T15:15:12;0.93;;;0.82;;
11618;SDS011;5865;48.776;9.280;2022-08-07T15:17:51;1.00;;;1.00;;
11618;SDS011;5865;48.776;9.280;2022-08-07T15:20:25;1.10;;;1.00;;
11618;SDS011;5865;48.776;9.280;2022-08-07T15:22:55;0.88;;;0.88;;
11618;SDS011;5865;48.776;9.280;2022-08-07T15:25:25;1.42;;;0.90;;
11618;SDS011;5865;48.776;9.280;2022-08-07T15:27:58;0.85;;;0.80;;
11618;SDS011;5865;48.776;9.280;2022-08-07T15:30:28;1.25;;;0.80;;
11618;SDS011;5865;48.776;9.280;2022-08-07T15:32:56;0.90;;;0.90;;
11618;SDS011;5865;48.776;9.280;2022-08-07T15:35:26;0.90;;;0.90;;
11618;SDS011;5865;48.776;9.280;2022-08-07T15:37:56;1.02;;;1.02;;
11618;SDS011;5865;48.776;9.280;2022-08-07T15:40:26;2.00;;;1.00;;
11618;SDS011;5865;48.776;9.280;2022-08-07T15:42:55;0.70;;;0.70;;
11618;SDS011;5865;48.776;9.280;2022-08-07T15:45:31;1.10;;;1.00;;
11618;SDS011;5865;48.776;9.280;2022-08-07T15:48:02;1.02;;;0.93;;
11618;SDS011;5865;48.776;9.280;2022-08-07T15:50:36;1.00;;;0.90;;
11618;SDS011;5865;48.776;9.280;2022-08-07T15:53:06;1.08;;;0.82;;
11618;SDS011;5865;48.776;9.280;2022-08-07T15:55:37;1.95;;;1.23;;
11618;SDS011;5865;48.776;9.280;2022-08-07T15:58:07;1.30;;;0.80;;
11618;SDS011;5865;48.776;9.280;2022-08-07T16:00:36;0.90;;;0.90;;
11618;SDS011;5865;48.776;9.280;2022-08-07T16:03:07;1.83;;;1.00;;
11618;SDS011;5865;48.776;9.280;2022-08-07T16:05:44;0.95;;;0.93;;
11618;SDS011;5865;48.776;9.280;2022-08-07T16:08:13;2.08;;;1.10;;
11618;SDS011;5865;48.776;9.280;2022-08-07T16:10:42;1.13;;;0.90;;
11618;SDS011;5865;48.776;9.280;2022-08-07T16:13:27;4.00;;;1.70;;
11618;SDS011;5865;48.776;9.280;2022-08-07T16:16:27;1.20;;;1.00;;